sensor_id;sensor_type;location;lat;lon;timestamp;P1;durP1;ratioP1;P2;durP2;ratioP2
5845;SDS011;2949;50.778;7.094;2024-03-08T00:00:15;29.97;;;15.30;;
5845;SDS011;2949;50.778;7.094;2024-03-08T00:02:43;25.33;;;13.90;;
5845;SDS011;2949;50.778;7.094;2024-03-08T00:05:10;25.90;;;14.27;;
5845;SDS011;2949;50.778;7.094;2024-03-08T00:07:36;22.33;;;14.60;;
5845;SDS011;2949;50.778;7.094;2024-03-08T00:10:05;28.57;;;15.17;;
5845;SDS011;2949;50.778;7.094;2024-03-08T00:12:36;27.90;;;15.17;;
5845;SDS011;2949;50.778;7.094;2024-03-08T00:15:09;27.37;;;14.10;;
5845;SDS011;2949;50.778;7.094;2024-03-08T00:17:39;28.87;;;13.43;;
5845;SDS011;2949;50.778;7.094;2024-03-08T00:20:05;26.17;;;13.77;;
5845;SDS011;2949;50.778;7.094;2024-03-08T00:22:37;29.70;;;16.10;;
5845;SDS011;2949;50.778;7.094;2024-03-08T00:25:03;27.10;;;15.67;;
5845;SDS011;2949;50.778;7.094;2024-03-08T00:27:29;26.83;;;14.70;;
5845;SDS011;2949;50.778;7.094;2024-03-08T00:29:58;25.73;;;14.60;;
5845;SDS011;2949;50.778;7.094;2024-03-08T00:32:24;34.10;;;14.80;;
5845;SDS011;2949;50.778;7.094;2024-03-08T00:34:50;30.07;;;16.00;;
5845;SDS011;2949;50.778;7.094;2024-03-08T00:37:19;22.80;;;14.40;;
5845;SDS011;2949;50.778;7.094;2024-03-08T00:39:46;28.93;;;16.17;;
5845;SDS011;2949;50.778;7.094;2024-03-08T00:42:16;25.33;;;14.73;;
5845;SDS011;2949;50.778;7.094;2024-03-08T00:44:45;25.30;;;15.00;;
5845;SDS011;2949;50.778;7.094;2024-03-08T00:47:11;34.13;;;15.47;;
5845;SDS011;2949;50.778;7.094;2024-03-08T00:49:36;24.03;;;13.80;;
5845;SDS011;2949;50.778;7.094;2024-03-08T00:52:03;25.73;;;14.70;;
5845;SDS011;2949;50.778;7.094;2024-03-08T00:54:31;25.93;;;13.80;;
5845;SDS011;2949;50.778;7.094;2024-03-08T00:56:57;25.30;;;14.83;;
5845;SDS011;2949;50.778;7.094;2024-03-08T00:59:23;30.13;;;13.83;;
5845;SDS011;2949;50.778;7.094;2024-03-08T01:01:48;28.67;;;13.93;;
5845;SDS011;2949;50.778;7.094;2024-03-08T01:04:14;27.23;;;15.30;;
5845;SDS011;2949;50.778;7.094;2024-03-08T01:06:39;23.90;;;13.20;;
5845;SDS011;2949;50.778;7.094;2024-03-08T01:09:05;28.80;;;13.77;;
5845;SDS011;2949;50.778;7.094;2024-03-08T01:11:32;32.67;;;14.37;;
5845;SDS011;2949;50.778;7.094;2024-03-08T01:13:58;28.27;;;14.70;;
5845;SDS011;2949;50.778;7.094;2024-03-08T01:16:23;26.03;;;12.07;;
5845;SDS011;2949;50.778;7.094;2024-03-08T01:18:49;27.97;;;14.10;;
5845;SDS011;2949;50.778;7.094;2024-03-08T01:21:15;30.90;;;14.10;;
5845;SDS011;2949;50.778;7.094;2024-03-08T01:23:40;26.20;;;13.43;;
5845;SDS011;2949;50.778;7.094;2024-03-08T01:26:06;20.43;;;12.20;;
5845;SDS011;2949;50.778;7.094;2024-03-08T01:28:31;24.13;;;13.50;;
5845;SDS011;2949;50.778;7.094;2024-03-08T01:30:59;26.03;;;14.73;;
5845;SDS011;2949;50.778;7.094;2024-03-08T01:33:25;31.63;;;15.70;;
5845;SDS011;2949;50.778;7.094;2024-03-08T01:35:52;27.20;;;15.43;;
5845;SDS011;2949;50.778;7.094;2024-03-08T01:38:18;27.53;;;14.90;;
5845;SDS011;2949;50.778;7.094;2024-03-08T01:40:46;31.13;;;15.60;;
5845;SDS011;2949;50.778;7.094;2024-03-08T01:43:18;25.60;;;14.57;;
5845;SDS011;2949;50.778;7.094;2024-03-08T01:45:45;23.87;;;13.57;;
5845;SDS011;2949;50.778;7.094;2024-03-08T01:48:10;29.60;;;14.90;;
5845;SDS011;2949;50.778;7.094;2024-03-08T01:50:37;32.37;;;16.13;;
5845;SDS011;2949;50.778;7.094;2024-03-08T01:53:04;29.17;;;15.23;;
5845;SDS011;2949;50.778;7.094;2024-03-08T01:55:31;28.70;;;15.40;;
5845;SDS011;2949;50.778;7.094;2024-03-08T01:57:57;28.83;;;14.07;;
5845;SDS011;2949;50.778;7.094;2024-03-08T02:00:24;37.80;;;16.10;;
5845;SDS011;2949;50.778;7.094;2024-03-08T02:02:51;28.73;;;16.03;;
5845;SDS011;2949;50.778;7.094;2024-03-08T02:05:19;30.90;;;15.63;;
5845;SDS011;2949;50.778;7.094;2024-03-08T02:07:46;27.10;;;15.40;;
5845;SDS011;2949;50.778;7.094;2024-03-08T02:10:11;31.97;;;14.83;;
5845;SDS011;2949;50.778;7.094;2024-03-08T02:12:40;30.73;;;15.83;;
5845;SDS011;2949;50.778;7.094;2024-03-08T02:15:06;28.63;;;15.27;;
5845;SDS011;2949;50.778;7.094;2024-03-08T02:17:32;33.00;;;16.80;;
5845;SDS011;2949;50.778;7.094;2024-03-08T02:20:00;33.13;;;16.90;;
5845;SDS011;2949;50.778;7.094;2024-03-08T02:22:30;29.10;;;15.47;;
5845;SDS011;2949;50.778;7.094;2024-03-08T02:24:58;35.07;;;16.97;;
5845;SDS011;2949;50.778;7.094;2024-03-08T02:27:26;33.00;;;17.20;;
5845;SDS011;2949;50.778;7.094;2024-03-08T02:29:53;26.90;;;14.80;;
5845;SDS011;2949;50.778;7.094;2024-03-08T02:32:23;39.10;;;16.90;;
5845;SDS011;2949;50.778;7.094;2024-03-08T02:34:49;46.60;;;17.00;;
5845;SDS011;2949;50.778;7.094;2024-03-08T02:37:15;31.00;;;16.23;;
5845;SDS011;2949;50.778;7.094;2024-03-08T02:39:43;29.70;;;17.03;;
5845;SDS011;2949;50.778;7.094;2024-03-08T02:42:10;29.20;;;16.60;;
5845;SDS011;2949;50.778;7.094;2024-03-08T02:44:35;30.70;;;16.27;;
5845;SDS011;2949;50.778;7.094;2024-03-08T02:47:01;28.47;;;16.00;;
5845;SDS011;2949;50.778;7.094;2024-03-08T02:49:26;27.77;;;16.40;;
5845;SDS011;2949;50.778;7.094;2024-03-08T02:51:53;35.00;;;17.03;;
5845;SDS011;2949;50.778;7.094;2024-03-08T02:54:18;30.20;;;16.33;;
5845;SDS011;2949;50.778;7.094;2024-03-08T02:56:45;33.20;;;16.03;;
5845;SDS011;2949;50.778;7.094;2024-03-08T02:59:11;28.33;;;14.77;;
5845;SDS011;2949;50.778;7.094;2024-03-08T03:01:37;33.13;;;17.00;;
5845;SDS011;2949;50.778;7.094;2024-03-08T03:04:03;34.90;;;16.53;;
5845;SDS011;2949;50.778;7.094;2024-03-08T03:06:29;33.50;;;17.70;;
5845;SDS011;2949;50.778;7.094;2024-03-08T03:08:54;37.70;;;16.53;;
5845;SDS011;2949;50.778;7.094;2024-03-08T03:11:22;26.20;;;15.10;;
5845;SDS011;2949;50.778;7.094;2024-03-08T03:13:48;32.77;;;16.80;;
5845;SDS011;2949;50.778;7.094;2024-03-08T03:16:19;31.67;;;16.57;;
5845;SDS011;2949;50.778;7.094;2024-03-08T03:18:45;32.67;;;16.00;;
5845;SDS011;2949;50.778;7.094;2024-03-08T03:21:11;27.90;;;15.07;;
5845;SDS011;2949;50.778;7.094;2024-03-08T03:23:38;35.23;;;15.97;;
5845;SDS011;2949;50.778;7.094;2024-03-08T03:26:05;33.23;;;16.00;;
5845;SDS011;2949;50.778;7.094;2024-03-08T03:28:32;32.00;;;16.13;;
5845;SDS011;2949;50.778;7.094;2024-03-08T03:30:58;30.07;;;15.70;;
5845;SDS011;2949;50.778;7.094;2024-03-08T03:33:24;29.80;;;16.03;;
5845;SDS011;2949;50.778;7.094;2024-03-08T03:35:49;29.30;;;15.67;;
5845;SDS011;2949;50.778;7.094;2024-03-08T03:38:17;38.67;;;17.40;;
5845;SDS011;2949;50.778;7.094;2024-03-08T03:40:43;29.70;;;16.13;;
5845;SDS011;2949;50.778;7.094;2024-03-08T03:43:11;32.43;;;15.97;;
5845;SDS011;2949;50.778;7.094;2024-03-08T03:45:37;33.33;;;17.77;;
5845;SDS011;2949;50.778;7.094;2024-03-08T03:48:04;35.17;;;16.60;;
5845;SDS011;2949;50.778;7.094;2024-03-08T03:50:31;30.03;;;15.30;;
5845;SDS011;2949;50.778;7.094;2024-03-08T03:52:59;29.10;;;16.00;;
5845;SDS011;2949;50.778;7.094;2024-03-08T03:55:24;37.93;;;16.00;;
5845;SDS011;2949;50.778;7.094;2024-03-08T03:57:50;33.43;;;16.97;;
5845;SDS011;2949;50.778;7.094;2024-03-08T04:00:16;37.70;;;15.23;;
5845;SDS011;2949;50.778;7.094;2024-03-08T04:02:41;29.87;;;17.03;;
5845;SDS011;2949;50.778;7.094;2024-03-08T04:05:08;38.13;;;18.67;;
5845;SDS011;2949;50.778;7.094;2024-03-08T04:07:34;35.50;;;18.30;;
5845;SDS011;2949;50.778;7.094;2024-03-08T04:10:04;35.07;;;17.23;;
5845;SDS011;2949;50.778;7.094;2024-03-08T04:12:31;32.47;;;16.63;;
5845;SDS011;2949;50.778;7.094;2024-03-08T04:15:00;29.17;;;14.30;;
5845;SDS011;2949;50.778;7.094;2024-03-08T04:17:26;35.47;;;16.30;;
5845;SDS011;2949;50.778;7.094;2024-03-08T04:19:51;30.23;;;15.63;;
5845;SDS011;2949;50.778;7.094;2024-03-08T04:22:17;34.73;;;16.53;;
5845;SDS011;2949;50.778;7.094;2024-03-08T04:24:43;33.40;;;17.30;;
5845;SDS011;2949;50.778;7.094;2024-03-08T04:27:09;33.27;;;16.47;;
5845;SDS011;2949;50.778;7.094;2024-03-08T04:29:35;29.60;;;15.77;;
5845;SDS011;2949;50.778;7.094;2024-03-08T04:32:03;33.60;;;15.57;;
5845;SDS011;2949;50.778;7.094;2024-03-08T04:34:29;29.50;;;14.73;;
5845;SDS011;2949;50.778;7.094;2024-03-08T04:36:58;31.93;;;16.40;;
5845;SDS011;2949;50.778;7.094;2024-03-08T04:39:24;26.73;;;14.00;;
5845;SDS011;2949;50.778;7.094;2024-03-08T04:41:52;28.90;;;14.60;;
5845;SDS011;2949;50.778;7.094;2024-03-08T04:44:19;29.53;;;15.17;;
5845;SDS011;2949;50.778;7.094;2024-03-08T04:46:45;28.70;;;15.20;;
5845;SDS011;2949;50.778;7.094;2024-03-08T04:49:11;30.53;;;14.93;;
5845;SDS011;2949;50.778;7.094;2024-03-08T04:51:38;32.40;;;15.90;;
5845;SDS011;2949;50.778;7.094;2024-03-08T04:54:03;30.00;;;15.87;;
5845;SDS011;2949;50.778;7.094;2024-03-08T04:56:32;20.70;;;11.53;;
5845;SDS011;2949;50.778;7.094;2024-03-08T04:58:58;29.47;;;16.40;;
5845;SDS011;2949;50.778;7.094;2024-03-08T05:01:24;31.00;;;15.50;;
5845;SDS011;2949;50.778;7.094;2024-03-08T05:03:49;25.87;;;14.73;;
5845;SDS011;2949;50.778;7.094;2024-03-08T05:06:16;33.47;;;16.80;;
5845;SDS011;2949;50.778;7.094;2024-03-08T05:08:41;28.63;;;15.90;;
5845;SDS011;2949;50.778;7.094;2024-03-08T05:11:07;30.90;;;15.97;;
5845;SDS011;2949;50.778;7.094;2024-03-08T05:13:32;31.67;;;15.97;;
5845;SDS011;2949;50.778;7.094;2024-03-08T05:15:59;30.70;;;15.17;;
5845;SDS011;2949;50.778;7.094;2024-03-08T05:18:25;38.10;;;16.83;;
5845;SDS011;2949;50.778;7.094;2024-03-08T05:20:51;30.90;;;16.60;;
5845;SDS011;2949;50.778;7.094;2024-03-08T05:23:17;30.97;;;15.23;;
5845;SDS011;2949;50.778;7.094;2024-03-08T05:25:44;27.20;;;14.73;;
5845;SDS011;2949;50.778;7.094;2024-03-08T05:28:11;34.87;;;17.13;;
5845;SDS011;2949;50.778;7.094;2024-03-08T05:30:38;29.40;;;13.30;;
5845;SDS011;2949;50.778;7.094;2024-03-08T05:33:03;33.43;;;15.77;;
5845;SDS011;2949;50.778;7.094;2024-03-08T05:35:29;20.27;;;10.20;;
5845;SDS011;2949;50.778;7.094;2024-03-08T05:37:55;28.90;;;14.17;;
5845;SDS011;2949;50.778;7.094;2024-03-08T05:40:21;27.30;;;13.17;;
5845;SDS011;2949;50.778;7.094;2024-03-08T05:42:46;29.10;;;14.57;;
5845;SDS011;2949;50.778;7.094;2024-03-08T05:45:12;29.83;;;12.20;;
5845;SDS011;2949;50.778;7.094;2024-03-08T05:47:39;33.53;;;14.13;;
5845;SDS011;2949;50.778;7.094;2024-03-08T05:50:05;26.70;;;13.83;;
5845;SDS011;2949;50.778;7.094;2024-03-08T05:52:33;32.73;;;13.20;;
5845;SDS011;2949;50.778;7.094;2024-03-08T05:54:58;24.63;;;12.77;;
5845;SDS011;2949;50.778;7.094;2024-03-08T05:57:24;28.67;;;14.97;;
5845;SDS011;2949;50.778;7.094;2024-03-08T05:59:49;32.77;;;16.03;;
5845;SDS011;2949;50.778;7.094;2024-03-08T06:02:15;23.67;;;11.33;;
5845;SDS011;2949;50.778;7.094;2024-03-08T06:04:44;27.90;;;14.67;;
5845;SDS011;2949;50.778;7.094;2024-03-08T06:07:11;29.97;;;15.57;;
5845;SDS011;2949;50.778;7.094;2024-03-08T06:09:37;28.10;;;14.67;;
5845;SDS011;2949;50.778;7.094;2024-03-08T06:12:03;34.87;;;16.77;;
5845;SDS011;2949;50.778;7.094;2024-03-08T06:14:31;31.53;;;16.23;;
5845;SDS011;2949;50.778;7.094;2024-03-08T06:16:57;29.20;;;14.80;;
5845;SDS011;2949;50.778;7.094;2024-03-08T06:19:22;28.87;;;14.63;;
5845;SDS011;2949;50.778;7.094;2024-03-08T06:21:48;35.17;;;16.77;;
5845;SDS011;2949;50.778;7.094;2024-03-08T06:24:13;34.47;;;16.73;;
5845;SDS011;2949;50.778;7.094;2024-03-08T06:26:40;33.97;;;16.97;;
5845;SDS011;2949;50.778;7.094;2024-03-08T06:29:05;33.27;;;16.03;;
5845;SDS011;2949;50.778;7.094;2024-03-08T06:31:34;28.80;;;15.90;;
5845;SDS011;2949;50.778;7.094;2024-03-08T06:33:59;34.10;;;17.00;;
5845;SDS011;2949;50.778;7.094;2024-03-08T06:36:25;29.40;;;16.63;;
5845;SDS011;2949;50.778;7.094;2024-03-08T06:38:50;33.87;;;17.40;;
5845;SDS011;2949;50.778;7.094;2024-03-08T06:41:16;38.87;;;18.03;;
5845;SDS011;2949;50.778;7.094;2024-03-08T06:43:42;32.00;;;17.03;;
5845;SDS011;2949;50.778;7.094;2024-03-08T06:46:11;30.70;;;16.03;;
5845;SDS011;2949;50.778;7.094;2024-03-08T06:48:38;31.33;;;17.80;;
5845;SDS011;2949;50.778;7.094;2024-03-08T06:51:04;32.67;;;17.27;;
5845;SDS011;2949;50.778;7.094;2024-03-08T06:53:30;40.03;;;18.17;;
5845;SDS011;2949;50.778;7.094;2024-03-08T06:55:56;35.27;;;17.50;;
5845;SDS011;2949;50.778;7.094;2024-03-08T06:58:22;37.17;;;18.10;;
5845;SDS011;2949;50.778;7.094;2024-03-08T07:00:48;37.83;;;18.30;;
5845;SDS011;2949;50.778;7.094;2024-03-08T07:03:17;35.63;;;17.30;;
5845;SDS011;2949;50.778;7.094;2024-03-08T07:05:42;34.97;;;15.63;;
5845;SDS011;2949;50.778;7.094;2024-03-08T07:08:08;34.90;;;15.80;;
5845;SDS011;2949;50.778;7.094;2024-03-08T07:10:34;28.00;;;14.97;;
5845;SDS011;2949;50.778;7.094;2024-03-08T07:13:00;36.77;;;17.40;;
5845;SDS011;2949;50.778;7.094;2024-03-08T07:15:27;26.90;;;13.83;;
5845;SDS011;2949;50.778;7.094;2024-03-08T07:17:53;29.63;;;16.03;;
5845;SDS011;2949;50.778;7.094;2024-03-08T07:20:19;29.13;;;14.97;;
5845;SDS011;2949;50.778;7.094;2024-03-08T07:22:45;33.30;;;16.27;;
5845;SDS011;2949;50.778;7.094;2024-03-08T07:25:15;27.43;;;13.27;;
5845;SDS011;2949;50.778;7.094;2024-03-08T07:27:46;24.80;;;12.83;;
5845;SDS011;2949;50.778;7.094;2024-03-08T07:30:22;24.40;;;13.80;;
5845;SDS011;2949;50.778;7.094;2024-03-08T07:33:07;30.20;;;13.37;;
5845;SDS011;2949;50.778;7.094;2024-03-08T07:35:33;26.30;;;11.57;;
5845;SDS011;2949;50.778;7.094;2024-03-08T07:38:02;23.50;;;12.83;;
5845;SDS011;2949;50.778;7.094;2024-03-08T07:40:35;32.17;;;14.07;;
5845;SDS011;2949;50.778;7.094;2024-03-08T07:43:01;25.47;;;11.67;;
5845;SDS011;2949;50.778;7.094;2024-03-08T07:45:27;22.83;;;12.90;;
5845;SDS011;2949;50.778;7.094;2024-03-08T07:47:53;30.23;;;14.13;;
5845;SDS011;2949;50.778;7.094;2024-03-08T07:50:18;18.87;;;10.20;;
5845;SDS011;2949;50.778;7.094;2024-03-08T07:52:44;27.10;;;14.00;;
5845;SDS011;2949;50.778;7.094;2024-03-08T07:55:10;21.47;;;12.40;;
5845;SDS011;2949;50.778;7.094;2024-03-08T07:57:35;28.07;;;13.97;;
5845;SDS011;2949;50.778;7.094;2024-03-08T08:00:03;31.07;;;14.07;;
5845;SDS011;2949;50.778;7.094;2024-03-08T08:02:32;29.80;;;14.80;;
5845;SDS011;2949;50.778;7.094;2024-03-08T08:04:59;28.87;;;13.57;;
5845;SDS011;2949;50.778;7.094;2024-03-08T08:07:24;18.87;;;9.90;;
5845;SDS011;2949;50.778;7.094;2024-03-08T08:09:50;23.43;;;14.10;;
5845;SDS011;2949;50.778;7.094;2024-03-08T08:12:17;26.60;;;14.33;;
5845;SDS011;2949;50.778;7.094;2024-03-08T08:14:43;28.13;;;12.73;;
5845;SDS011;2949;50.778;7.094;2024-03-08T08:17:08;25.40;;;14.33;;
5845;SDS011;2949;50.778;7.094;2024-03-08T08:19:34;20.13;;;11.30;;
5845;SDS011;2949;50.778;7.094;2024-03-08T08:22:03;22.80;;;12.90;;
5845;SDS011;2949;50.778;7.094;2024-03-08T08:24:29;27.70;;;14.10;;
5845;SDS011;2949;50.778;7.094;2024-03-08T08:26:54;22.33;;;12.07;;
5845;SDS011;2949;50.778;7.094;2024-03-08T08:29:20;22.73;;;13.80;;
5845;SDS011;2949;50.778;7.094;2024-03-08T08:31:47;23.87;;;13.50;;
5845;SDS011;2949;50.778;7.094;2024-03-08T08:34:12;24.53;;;13.10;;
5845;SDS011;2949;50.778;7.094;2024-03-08T08:36:38;23.77;;;13.60;;
5845;SDS011;2949;50.778;7.094;2024-03-08T08:39:04;25.13;;;14.80;;
5845;SDS011;2949;50.778;7.094;2024-03-08T08:41:37;26.77;;;13.57;;
5845;SDS011;2949;50.778;7.094;2024-03-08T08:44:02;22.63;;;11.60;;
5845;SDS011;2949;50.778;7.094;2024-03-08T08:46:28;20.37;;;11.47;;
5845;SDS011;2949;50.778;7.094;2024-03-08T08:48:53;27.40;;;14.37;;
5845;SDS011;2949;50.778;7.094;2024-03-08T08:51:19;27.57;;;14.90;;
5845;SDS011;2949;50.778;7.094;2024-03-08T08:53:44;21.07;;;13.07;;
5845;SDS011;2949;50.778;7.094;2024-03-08T08:56:12;23.47;;;11.73;;
5845;SDS011;2949;50.778;7.094;2024-03-08T08:58:40;21.57;;;12.00;;
5845;SDS011;2949;50.778;7.094;2024-03-08T09:01:09;24.93;;;12.30;;
5845;SDS011;2949;50.778;7.094;2024-03-08T09:03:37;15.33;;;9.93;;
5845;SDS011;2949;50.778;7.094;2024-03-08T09:06:05;20.57;;;10.73;;
5845;SDS011;2949;50.778;7.094;2024-03-08T09:08:34;19.80;;;11.20;;
5845;SDS011;2949;50.778;7.094;2024-03-08T09:11:00;25.00;;;11.97;;
5845;SDS011;2949;50.778;7.094;2024-03-08T09:13:26;19.77;;;8.77;;
5845;SDS011;2949;50.778;7.094;2024-03-08T09:15:51;22.53;;;11.57;;
5845;SDS011;2949;50.778;7.094;2024-03-08T09:18:17;19.97;;;12.20;;
5845;SDS011;2949;50.778;7.094;2024-03-08T09:20:44;19.07;;;10.67;;
5845;SDS011;2949;50.778;7.094;2024-03-08T09:23:09;20.50;;;11.40;;
5845;SDS011;2949;50.778;7.094;2024-03-08T09:25:35;16.97;;;10.93;;
5845;SDS011;2949;50.778;7.094;2024-03-08T09:28:00;17.40;;;11.20;;
5845;SDS011;2949;50.778;7.094;2024-03-08T09:30:26;13.80;;;8.87;;
5845;SDS011;2949;50.778;7.094;2024-03-08T09:32:52;14.83;;;9.90;;
5845;SDS011;2949;50.778;7.094;2024-03-08T09:35:17;12.60;;;6.00;;
5845;SDS011;2949;50.778;7.094;2024-03-08T09:37:43;15.60;;;9.50;;
5845;SDS011;2949;50.778;7.094;2024-03-08T09:40:08;15.30;;;9.67;;
5845;SDS011;2949;50.778;7.094;2024-03-08T09:42:35;15.17;;;9.70;;
5845;SDS011;2949;50.778;7.094;2024-03-08T09:45:05;11.23;;;6.17;;
5845;SDS011;2949;50.778;7.094;2024-03-08T09:47:35;18.33;;;10.20;;
5845;SDS011;2949;50.778;7.094;2024-03-08T09:50:04;13.07;;;7.53;;
5845;SDS011;2949;50.778;7.094;2024-03-08T09:52:34;16.80;;;10.00;;
5845;SDS011;2949;50.778;7.094;2024-03-08T09:55:01;12.70;;;8.17;;
5845;SDS011;2949;50.778;7.094;2024-03-08T09:57:26;15.90;;;8.60;;
5845;SDS011;2949;50.778;7.094;2024-03-08T09:59:52;19.73;;;10.00;;
5845;SDS011;2949;50.778;7.094;2024-03-08T10:02:18;14.23;;;9.17;;
5845;SDS011;2949;50.778;7.094;2024-03-08T10:04:43;13.13;;;8.63;;
5845;SDS011;2949;50.778;7.094;2024-03-08T10:07:12;13.00;;;8.17;;
5845;SDS011;2949;50.778;7.094;2024-03-08T10:09:38;13.77;;;8.33;;
5845;SDS011;2949;50.778;7.094;2024-03-08T10:12:04;10.63;;;5.63;;
5845;SDS011;2949;50.778;7.094;2024-03-08T10:14:30;13.07;;;8.17;;
5845;SDS011;2949;50.778;7.094;2024-03-08T10:16:59;18.73;;;8.93;;
5845;SDS011;2949;50.778;7.094;2024-03-08T10:19:26;16.50;;;7.37;;
5845;SDS011;2949;50.778;7.094;2024-03-08T10:21:52;12.60;;;8.27;;
5845;SDS011;2949;50.778;7.094;2024-03-08T10:24:18;12.17;;;7.70;;
5845;SDS011;2949;50.778;7.094;2024-03-08T10:26:44;13.17;;;7.20;;
5845;SDS011;2949;50.778;7.094;2024-03-08T10:29:10;13.90;;;8.53;;
5845;SDS011;2949;50.778;7.094;2024-03-08T10:31:42;14.90;;;7.83;;
5845;SDS011;2949;50.778;7.094;2024-03-08T10:34:09;17.10;;;8.90;;
5845;SDS011;2949;50.778;7.094;2024-03-08T10:36:34;15.47;;;8.73;;
5845;SDS011;2949;50.778;7.094;2024-03-08T10:39:02;9.97;;;6.13;;
5845;SDS011;2949;50.778;7.094;2024-03-08T10:41:33;13.30;;;7.70;;
5845;SDS011;2949;50.778;7.094;2024-03-08T10:49:27;8.57;;;5.00;;
5845;SDS011;2949;50.778;7.094;2024-03-08T10:51:59;10.33;;;6.50;;
5845;SDS011;2949;50.778;7.094;2024-03-08T10:54:28;6.23;;;4.17;;
5845;SDS011;2949;50.778;7.094;2024-03-08T10:56:56;14.43;;;9.00;;
5845;SDS011;2949;50.778;7.094;2024-03-08T10:59:23;11.97;;;7.47;;
5845;SDS011;2949;50.778;7.094;2024-03-08T11:01:52;13.30;;;7.67;;
5845;SDS011;2949;50.778;7.094;2024-03-08T11:04:17;15.20;;;9.00;;
5845;SDS011;2949;50.778;7.094;2024-03-08T11:06:47;15.73;;;7.43;;
5845;SDS011;2949;50.778;7.094;2024-03-08T11:09:29;12.20;;;7.30;;
5845;SDS011;2949;50.778;7.094;2024-03-08T11:12:19;15.20;;;8.07;;
5845;SDS011;2949;50.778;7.094;2024-03-08T11:14:46;15.97;;;6.47;;
5845;SDS011;2949;50.778;7.094;2024-03-08T11:17:16;12.20;;;6.23;;
5845;SDS011;2949;50.778;7.094;2024-03-08T11:19:52;14.57;;;6.77;;
5845;SDS011;2949;50.778;7.094;2024-03-08T11:22:22;10.93;;;6.10;;
5845;SDS011;2949;50.778;7.094;2024-03-08T11:24:49;16.67;;;8.93;;
5845;SDS011;2949;50.778;7.094;2024-03-08T11:27:15;17.83;;;8.00;;
5845;SDS011;2949;50.778;7.094;2024-03-08T11:29:40;7.33;;;4.87;;
5845;SDS011;2949;50.778;7.094;2024-03-08T11:32:09;10.17;;;6.33;;
5845;SDS011;2949;50.778;7.094;2024-03-08T11:34:36;4.17;;;3.43;;
5845;SDS011;2949;50.778;7.094;2024-03-08T11:37:16;14.50;;;8.20;;
5845;SDS011;2949;50.778;7.094;2024-03-08T11:39:55;15.10;;;7.70;;
5845;SDS011;2949;50.778;7.094;2024-03-08T11:42:24;10.20;;;6.27;;
5845;SDS011;2949;50.778;7.094;2024-03-08T11:44:51;12.67;;;8.87;;
5845;SDS011;2949;50.778;7.094;2024-03-08T11:47:17;12.27;;;5.83;;
5845;SDS011;2949;50.778;7.094;2024-03-08T11:49:43;15.20;;;7.50;;
5845;SDS011;2949;50.778;7.094;2024-03-08T11:52:13;8.87;;;5.30;;
5845;SDS011;2949;50.778;7.094;2024-03-08T11:54:40;18.80;;;8.03;;
5845;SDS011;2949;50.778;7.094;2024-03-08T11:57:06;12.53;;;6.60;;
5845;SDS011;2949;50.778;7.094;2024-03-08T11:59:31;8.93;;;5.43;;
5845;SDS011;2949;50.778;7.094;2024-03-08T12:02:04;13.37;;;8.10;;
5845;SDS011;2949;50.778;7.094;2024-03-08T12:04:31;10.93;;;5.90;;
5845;SDS011;2949;50.778;7.094;2024-03-08T12:07:00;11.00;;;6.00;;
5845;SDS011;2949;50.778;7.094;2024-03-08T12:09:34;6.40;;;4.70;;
5845;SDS011;2949;50.778;7.094;2024-03-08T12:12:01;12.50;;;6.73;;
5845;SDS011;2949;50.778;7.094;2024-03-08T12:14:28;14.50;;;7.40;;
5845;SDS011;2949;50.778;7.094;2024-03-08T12:16:55;11.57;;;6.20;;
5845;SDS011;2949;50.778;7.094;2024-03-08T12:19:20;9.70;;;6.80;;
5845;SDS011;2949;50.778;7.094;2024-03-08T12:21:46;8.70;;;4.97;;
5845;SDS011;2949;50.778;7.094;2024-03-08T12:24:15;15.67;;;8.63;;
5845;SDS011;2949;50.778;7.094;2024-03-08T12:26:44;12.80;;;8.57;;
5845;SDS011;2949;50.778;7.094;2024-03-08T12:31:52;13.70;;;6.23;;
5845;SDS011;2949;50.778;7.094;2024-03-08T12:34:19;14.87;;;8.43;;
5845;SDS011;2949;50.778;7.094;2024-03-08T12:36:46;12.10;;;7.67;;
5845;SDS011;2949;50.778;7.094;2024-03-08T12:39:12;15.73;;;5.97;;
5845;SDS011;2949;50.778;7.094;2024-03-08T12:41:41;8.60;;;4.03;;
5845;SDS011;2949;50.778;7.094;2024-03-08T12:44:06;14.57;;;7.97;;
5845;SDS011;2949;50.778;7.094;2024-03-08T12:46:36;8.17;;;4.93;;
5845;SDS011;2949;50.778;7.094;2024-03-08T12:49:09;13.50;;;7.80;;
5845;SDS011;2949;50.778;7.094;2024-03-08T12:51:35;14.90;;;8.97;;
5845;SDS011;2949;50.778;7.094;2024-03-08T12:54:01;4.77;;;3.77;;
5845;SDS011;2949;50.778;7.094;2024-03-08T12:56:30;19.93;;;6.63;;
5845;SDS011;2949;50.778;7.094;2024-03-08T12:58:57;6.43;;;4.40;;
5845;SDS011;2949;50.778;7.094;2024-03-08T13:01:23;11.30;;;6.67;;
5845;SDS011;2949;50.778;7.094;2024-03-08T13:03:49;12.30;;;7.90;;
5845;SDS011;2949;50.778;7.094;2024-03-08T13:06:14;13.40;;;6.93;;
5845;SDS011;2949;50.778;7.094;2024-03-08T13:08:40;12.43;;;7.47;;
5845;SDS011;2949;50.778;7.094;2024-03-08T13:11:06;8.37;;;5.10;;
5845;SDS011;2949;50.778;7.094;2024-03-08T13:13:33;12.07;;;7.53;;
5845;SDS011;2949;50.778;7.094;2024-03-08T13:16:02;8.03;;;4.60;;
5845;SDS011;2949;50.778;7.094;2024-03-08T13:18:28;11.73;;;6.80;;
5845;SDS011;2949;50.778;7.094;2024-03-08T13:20:54;11.63;;;6.90;;
5845;SDS011;2949;50.778;7.094;2024-03-08T13:23:20;4.23;;;3.50;;
5845;SDS011;2949;50.778;7.094;2024-03-08T13:25:45;10.97;;;6.37;;
5845;SDS011;2949;50.778;7.094;2024-03-08T13:28:12;11.20;;;7.27;;
5845;SDS011;2949;50.778;7.094;2024-03-08T13:30:38;11.80;;;6.33;;
5845;SDS011;2949;50.778;7.094;2024-03-08T13:33:04;7.80;;;4.10;;
5845;SDS011;2949;50.778;7.094;2024-03-08T13:35:30;11.67;;;6.47;;
5845;SDS011;2949;50.778;7.094;2024-03-08T13:37:56;9.00;;;4.97;;
5845;SDS011;2949;50.778;7.094;2024-03-08T13:40:21;14.10;;;6.60;;
5845;SDS011;2949;50.778;7.094;2024-03-08T13:42:47;8.17;;;5.03;;
5845;SDS011;2949;50.778;7.094;2024-03-08T13:45:16;13.07;;;6.53;;
5845;SDS011;2949;50.778;7.094;2024-03-08T13:47:49;7.63;;;4.07;;
5845;SDS011;2949;50.778;7.094;2024-03-08T13:50:17;11.50;;;7.10;;
5845;SDS011;2949;50.778;7.094;2024-03-08T13:52:46;14.20;;;6.97;;
5845;SDS011;2949;50.778;7.094;2024-03-08T13:55:16;10.30;;;4.90;;
5845;SDS011;2949;50.778;7.094;2024-03-08T13:57:42;10.77;;;6.13;;
5845;SDS011;2949;50.778;7.094;2024-03-08T14:00:10;7.80;;;3.90;;
5845;SDS011;2949;50.778;7.094;2024-03-08T14:02:36;16.67;;;6.13;;
5845;SDS011;2949;50.778;7.094;2024-03-08T14:05:02;9.10;;;5.10;;
5845;SDS011;2949;50.778;7.094;2024-03-08T14:07:27;13.33;;;6.70;;
5845;SDS011;2949;50.778;7.094;2024-03-08T14:09:56;17.93;;;6.77;;
5845;SDS011;2949;50.778;7.094;2024-03-08T14:12:21;7.60;;;4.10;;
5845;SDS011;2949;50.778;7.094;2024-03-08T14:14:48;14.33;;;6.30;;
5845;SDS011;2949;50.778;7.094;2024-03-08T14:17:14;9.33;;;5.40;;
5845;SDS011;2949;50.778;7.094;2024-03-08T14:19:42;10.70;;;6.63;;
5845;SDS011;2949;50.778;7.094;2024-03-08T14:22:08;8.97;;;4.60;;
5845;SDS011;2949;50.778;7.094;2024-03-08T14:24:35;9.90;;;5.40;;
5845;SDS011;2949;50.778;7.094;2024-03-08T14:27:01;8.53;;;5.13;;
5845;SDS011;2949;50.778;7.094;2024-03-08T14:29:28;6.57;;;4.50;;
5845;SDS011;2949;50.778;7.094;2024-03-08T14:31:55;10.43;;;5.93;;
5845;SDS011;2949;50.778;7.094;2024-03-08T14:34:27;12.90;;;6.80;;
5845;SDS011;2949;50.778;7.094;2024-03-08T14:36:54;5.97;;;4.20;;
5845;SDS011;2949;50.778;7.094;2024-03-08T14:39:20;13.93;;;7.00;;
5845;SDS011;2949;50.778;7.094;2024-03-08T14:41:51;14.10;;;6.43;;
5845;SDS011;2949;50.778;7.094;2024-03-08T14:44:19;7.97;;;5.20;;
5845;SDS011;2949;50.778;7.094;2024-03-08T14:46:44;13.17;;;6.57;;
5845;SDS011;2949;50.778;7.094;2024-03-08T14:49:11;12.13;;;6.40;;
5845;SDS011;2949;50.778;7.094;2024-03-08T14:51:36;9.33;;;5.60;;
5845;SDS011;2949;50.778;7.094;2024-03-08T14:54:02;12.83;;;5.10;;
5845;SDS011;2949;50.778;7.094;2024-03-08T14:56:31;6.90;;;4.10;;
5845;SDS011;2949;50.778;7.094;2024-03-08T14:59:00;8.57;;;5.80;;